createdAt,value
2023-03-29T00:00:34.293Z,16.08
2023-03-29T00:03:04.116Z,16.04
2023-03-29T00:05:35.474Z,17.21
2023-03-29T00:08:04.506Z,16.57
2023-03-29T00:10:33.955Z,16.93
2023-03-29T00:13:02.836Z,16.00
2023-03-29T00:15:30.415Z,16.13
2023-03-29T00:17:58.309Z,16.12
2023-03-29T00:20:26.089Z,16.26
2023-03-29T00:22:53.607Z,17.05
2023-03-29T00:25:21.391Z,16.94
2023-03-29T00:27:49.209Z,17.66
2023-03-29T00:30:17.529Z,16.65
2023-03-29T00:32:46.114Z,16.58
2023-03-29T00:35:13.926Z,17.06
2023-03-29T00:37:41.903Z,17.29
2023-03-29T00:40:11.737Z,17.92
2023-03-29T00:42:39.388Z,15.78
2023-03-29T00:45:10.096Z,16.79
2023-03-29T00:47:48.670Z,16.86
2023-03-29T00:50:22.572Z,17.26
2023-03-29T00:52:56.636Z,16.90
2023-03-29T00:55:27.793Z,16.86
2023-03-29T00:57:57.854Z,16.51
2023-03-29T01:00:32.037Z,17.00
2023-03-29T01:03:07.149Z,17.62
2023-03-29T01:05:43.169Z,17.52
2023-03-29T01:08:25.678Z,17.55
2023-03-29T01:11:17.201Z,17.81
2023-03-29T01:13:52.150Z,17.47
2023-03-29T01:16:22.049Z,17.06
2023-03-29T01:18:49.855Z,16.75
2023-03-29T01:21:32.345Z,17.10
2023-03-29T01:24:08.010Z,16.76
2023-03-29T01:26:48.935Z,16.04
2023-03-29T01:29:28.559Z,15.50
2023-03-29T01:32:11.163Z,16.17
2023-03-29T01:34:51.638Z,14.68
2023-03-29T01:37:36.360Z,15.16
2023-03-29T01:40:06.159Z,14.88
2023-03-29T01:42:47.813Z,15.57
2023-03-29T01:45:30.981Z,16.42
2023-03-29T01:48:13.486Z,16.69
2023-03-29T01:51:03.828Z,16.99
2023-03-29T01:53:46.993Z,16.78
2023-03-29T01:56:21.740Z,16.80
2023-03-29T01:58:55.884Z,16.90
2023-03-29T02:01:27.428Z,16.39
2023-03-29T02:04:00.476Z,16.17
2023-03-29T02:06:30.673Z,14.91
2023-03-29T02:09:01.693Z,15.75
2023-03-29T02:11:29.465Z,15.59
2023-03-29T02:13:57.631Z,15.77
2023-03-29T02:16:25.261Z,14.79
2023-03-29T02:18:56.345Z,15.11
2023-03-29T02:21:30.469Z,14.65
2023-03-29T02:24:02.153Z,15.23
2023-03-29T02:26:29.782Z,15.86
2023-03-29T02:28:57.592Z,15.24
2023-03-29T02:31:30.998Z,14.82
2023-03-29T02:34:20.894Z,14.75
2023-03-29T02:37:24.422Z,16.29
2023-03-29T02:39:53.839Z,15.79
2023-03-29T02:42:23.370Z,15.94
2023-03-29T02:44:55.701Z,15.45
2023-03-29T02:47:32.025Z,15.28
2023-03-29T02:50:00.529Z,13.70
2023-03-29T02:52:39.297Z,13.87
2023-03-29T02:55:15.050Z,15.03
2023-03-29T02:57:44.031Z,14.46
2023-03-29T03:00:14.635Z,14.55
2023-03-29T03:02:42.929Z,14.73
2023-03-29T03:05:11.416Z,14.80
2023-03-29T03:07:40.626Z,14.36
2023-03-29T03:10:10.255Z,14.73
2023-03-29T03:12:38.796Z,14.89
2023-03-29T03:15:07.098Z,14.87
2023-03-29T03:17:40.173Z,14.76
2023-03-29T03:20:13.155Z,14.69
2023-03-29T03:22:45.633Z,14.63
2023-03-29T03:25:13.228Z,14.72
2023-03-29T03:27:43.790Z,14.30
2023-03-29T03:30:12.043Z,14.70
2023-03-29T03:32:59.325Z,14.50
2023-03-29T03:35:48.819Z,13.15
2023-03-29T03:38:17.992Z,13.60
2023-03-29T03:40:56.828Z,14.28
2023-03-29T03:43:25.342Z,13.16
2023-03-29T03:45:53.155Z,13.40
2023-03-29T03:48:25.016Z,14.04
2023-03-29T03:51:25.070Z,13.46
2023-03-29T03:53:52.742Z,13.22
2023-03-29T03:56:35.034Z,13.56
2023-03-29T03:59:23.085Z,13.83
2023-03-29T04:01:58.081Z,13.97
2023-03-29T04:04:27.056Z,14.15
2023-03-29T04:07:13.114Z,13.81
2023-03-29T04:09:59.518Z,13.56
2023-03-29T04:12:50.609Z,13.41
2023-03-29T04:15:20.320Z,12.83
2023-03-29T04:18:00.578Z,13.75
2023-03-29T04:20:34.697Z,13.64
2023-03-29T04:23:03.296Z,14.22
2023-03-29T04:25:31.709Z,12.59
2023-03-29T04:27:59.539Z,12.60
2023-03-29T04:30:47.319Z,14.25
2023-03-29T04:33:40.967Z,13.27
2023-03-29T04:36:09.463Z,13.68
2023-03-29T04:38:37.944Z,14.36
2023-03-29T04:41:05.887Z,14.84
2023-03-29T04:43:56.814Z,14.81
2023-03-29T04:46:26.909Z,14.77
2023-03-29T04:49:30.649Z,14.89
2023-03-29T04:52:00.856Z,14.83
2023-03-29T04:54:30.911Z,14.30
2023-03-29T04:57:21.379Z,14.57
2023-03-29T05:00:15.458Z,14.47
2023-03-29T05:03:01.775Z,14.62
2023-03-29T05:05:32.284Z,14.91
2023-03-29T05:08:03.337Z,14.85
2023-03-29T05:10:43.367Z,15.75
2023-03-29T05:13:11.267Z,15.55
2023-03-29T05:15:41.853Z,15.96
2023-03-29T05:18:10.728Z,15.85
2023-03-29T05:20:40.554Z,15.36
2023-03-29T05:23:09.739Z,16.12
2023-03-29T05:26:08.115Z,16.38
2023-03-29T05:28:35.954Z,16.61
2023-03-29T05:31:05.841Z,16.92
2023-03-29T05:33:36.575Z,17.30
2023-03-29T05:36:08.678Z,17.53
2023-03-29T05:38:41.704Z,17.62
2023-03-29T05:41:13.357Z,17.03
2023-03-29T05:43:59.810Z,17.08
2023-03-29T05:46:28.762Z,17.70
2023-03-29T05:48:58.790Z,17.92
2023-03-29T05:51:42.777Z,18.06
2023-03-29T05:54:10.512Z,18.20
2023-03-29T05:56:38.468Z,18.28
2023-03-29T05:59:06.145Z,18.18
2023-03-29T06:01:34.789Z,18.81
2023-03-29T06:04:06.628Z,18.22
2023-03-29T06:06:42.312Z,18.80
2023-03-29T06:09:10.546Z,19.03
2023-03-29T06:11:42.733Z,19.36
2023-03-29T06:14:10.413Z,19.47
2023-03-29T06:16:48.786Z,19.33
2023-03-29T06:19:17.427Z,19.21
2023-03-29T06:21:45.091Z,19.64
2023-03-29T06:24:16.321Z,19.77
2023-03-29T06:26:50.476Z,20.18
2023-03-29T06:29:22.179Z,19.21
2023-03-29T06:31:50.124Z,18.98
2023-03-29T06:34:54.142Z,20.03
2023-03-29T06:37:50.808Z,18.10
2023-03-29T06:40:38.794Z,21.07
2023-03-29T06:43:07.467Z,19.74
2023-03-29T06:45:38.794Z,17.05
2023-03-29T06:48:12.676Z,18.86
2023-03-29T06:50:41.997Z,19.84
2023-03-29T06:53:15.959Z,19.94
2023-03-29T06:55:47.340Z,21.36
2023-03-29T06:58:38.327Z,21.19
2023-03-29T07:01:31.293Z,20.84
2023-03-29T07:04:08.173Z,21.41
2023-03-29T07:07:01.348Z,20.49
2023-03-29T07:09:31.110Z,21.13
2023-03-29T07:12:17.050Z,20.98
2023-03-29T07:14:46.605Z,18.88
2023-03-29T07:17:14.953Z,18.73
2023-03-29T07:19:43.074Z,17.16
2023-03-29T07:22:13.564Z,19.03
2023-03-29T07:24:49.857Z,18.30
2023-03-29T07:27:18.144Z,18.95
2023-03-29T07:29:50.057Z,20.45
2023-03-29T07:32:19.863Z,19.74
2023-03-29T07:34:56.717Z,19.89
2023-03-29T07:37:34.409Z,20.68
2023-03-29T07:40:04.460Z,20.70
2023-03-29T07:42:54.584Z,19.25
2023-03-29T07:45:26.542Z,19.89
2023-03-29T07:48:01.256Z,19.73
2023-03-29T07:50:41.466Z,18.88
2023-03-29T07:53:10.009Z,20.70
2023-03-29T07:55:38.041Z,22.10
2023-03-29T07:58:29.553Z,21.33
2023-03-29T08:01:00.253Z,22.59
2023-03-29T08:04:00.734Z,22.29
2023-03-29T08:07:00.643Z,22.08
2023-03-29T08:09:45.015Z,21.28
2023-03-29T08:12:12.876Z,21.29
2023-03-29T08:14:40.574Z,21.47
2023-03-29T08:17:23.942Z,22.49
2023-03-29T08:19:52.368Z,20.82
2023-03-29T08:22:25.014Z,20.92
2023-03-29T08:25:18.665Z,21.10
2023-03-29T08:27:50.204Z,22.55
2023-03-29T08:30:28.265Z,21.88
2023-03-29T08:32:58.045Z,21.79
2023-03-29T08:35:25.765Z,21.90
2023-03-29T08:38:12.604Z,23.49
2023-03-29T08:40:40.483Z,22.46
2023-03-29T08:43:16.042Z,23.08
2023-03-29T08:46:18.812Z,23.38
2023-03-29T08:48:54.355Z,23.07
2023-03-29T08:51:39.235Z,23.69
2023-03-29T08:54:13.419Z,22.53
2023-03-29T08:57:18.922Z,22.82
2023-03-29T08:59:53.518Z,23.70
2023-03-29T09:02:26.182Z,23.69
2023-03-29T09:05:20.489Z,26.51
2023-03-29T09:08:21.306Z,27.76
2023-03-29T09:11:21.701Z,28.01
2023-03-29T09:14:27.899Z,28.64
2023-03-29T09:17:32.600Z,27.49
2023-03-29T09:20:19.609Z,30.30
2023-03-29T09:22:53.209Z,26.12
2023-03-29T09:25:26.422Z,30.82
2023-03-29T09:28:04.753Z,28.00
2023-03-29T09:30:59.922Z,28.56
2023-03-29T09:33:54.839Z,26.32
2023-03-29T09:36:29.056Z,27.57
2023-03-29T09:38:56.963Z,28.60
2023-03-29T09:41:36.490Z,26.89
2023-03-29T09:44:27.742Z,27.83
2023-03-29T09:47:07.612Z,27.72
2023-03-29T09:49:43.538Z,29.57
2023-03-29T09:52:17.316Z,27.56
2023-03-29T09:55:05.729Z,28.54
2023-03-29T09:58:23.840Z,27.53
2023-03-29T10:00:58.356Z,28.67
2023-03-29T10:03:28.632Z,28.45
2023-03-29T10:06:12.545Z,30.45
2023-03-29T10:08:47.841Z,30.88
2023-03-29T10:11:33.046Z,30.20
2023-03-29T10:14:05.251Z,30.54
2023-03-29T10:16:41.900Z,32.84
2023-03-29T10:19:20.128Z,30.44
2023-03-29T10:21:49.307Z,28.69
2023-03-29T10:24:21.842Z,31.07
2023-03-29T10:26:56.197Z,31.72
2023-03-29T10:29:25.586Z,31.65
2023-03-29T10:31:53.893Z,32.54
2023-03-29T10:34:26.025Z,31.81
2023-03-29T10:37:01.377Z,33.87
2023-03-29T10:39:34.119Z,34.87
2023-03-29T10:42:04.194Z,36.07
2023-03-29T10:44:35.680Z,35.85
2023-03-29T10:47:19.528Z,31.21
2023-03-29T10:49:53.211Z,33.81
2023-03-29T10:52:23.111Z,32.40
2023-03-29T10:54:52.711Z,30.42
2023-03-29T10:57:41.880Z,32.73
2023-03-29T11:00:40.807Z,36.26
2023-03-29T11:03:16.215Z,36.07
2023-03-29T11:06:17.138Z,35.39
2023-03-29T11:09:06.850Z,33.98
2023-03-29T11:12:26.893Z,33.01
2023-03-29T11:15:14.617Z,35.51
2023-03-29T11:18:14.981Z,32.52
2023-03-29T11:20:54.193Z,33.78
2023-03-29T11:23:42.931Z,36.64
2023-03-29T11:26:22.610Z,34.70
2023-03-29T11:29:00.515Z,33.89
2023-03-29T11:31:43.999Z,32.39
2023-03-29T11:34:26.583Z,29.77
2023-03-29T11:37:05.740Z,32.93
2023-03-29T11:39:36.276Z,32.01
2023-03-29T11:42:16.041Z,29.21
2023-03-29T11:44:47.230Z,29.21
2023-03-29T11:47:20.517Z,32.11
2023-03-29T11:49:56.281Z,31.34
2023-03-29T11:52:26.543Z,30.89
2023-03-29T11:55:05.456Z,28.00
2023-03-29T11:57:40.716Z,28.51
2023-03-29T12:00:27.538Z,30.35
2023-03-29T12:03:05.414Z,32.92
2023-03-29T12:05:47.315Z,31.87
2023-03-29T12:08:29.236Z,31.21
2023-03-29T12:11:28.602Z,30.30
2023-03-29T12:14:15.595Z,30.61
2023-03-29T12:16:43.109Z,28.71
2023-03-29T12:19:31.839Z,31.54
2023-03-29T12:22:01.305Z,31.06
2023-03-29T12:24:32.610Z,30.24
2023-03-29T12:27:21.261Z,31.18
2023-03-29T12:29:57.959Z,32.42
2023-03-29T12:32:31.393Z,30.18
2023-03-29T12:35:35.220Z,29.39
2023-03-29T12:38:28.714Z,30.97
2023-03-29T12:41:21.849Z,31.32
2023-03-29T12:44:09.609Z,29.82
2023-03-29T12:46:52.041Z,30.65
2023-03-29T12:49:29.035Z,32.14
2023-03-29T12:51:59.231Z,34.17
2023-03-29T12:54:33.241Z,31.85
2023-03-29T12:57:26.113Z,32.79
2023-03-29T12:59:54.133Z,30.01
2023-03-29T13:02:21.880Z,33.17
2023-03-29T13:04:51.244Z,32.55
2023-03-29T13:07:27.427Z,34.23
2023-03-29T13:09:56.480Z,35.90
2023-03-29T13:12:40.284Z,32.73
2023-03-29T13:15:23.685Z,32.80
2023-03-29T13:18:16.128Z,30.45
2023-03-29T13:21:06.996Z,30.75
2023-03-29T13:23:40.782Z,28.33
2023-03-29T13:26:30.466Z,30.09
2023-03-29T13:29:29.363Z,28.51
2023-03-29T13:32:39.261Z,28.35
2023-03-29T13:35:30.277Z,29.10
2023-03-29T13:38:00.768Z,28.68
2023-03-29T13:40:46.919Z,29.58
2023-03-29T13:43:18.624Z,27.98
2023-03-29T13:45:58.120Z,27.68
2023-03-29T13:48:27.501Z,28.29
2023-03-29T13:51:08.207Z,29.43
2023-03-29T13:53:41.525Z,28.19
2023-03-29T13:56:17.810Z,28.62
2023-03-29T13:58:51.294Z,26.94
2023-03-29T14:01:29.705Z,28.47
2023-03-29T14:03:59.368Z,28.62
2023-03-29T14:06:31.740Z,28.31
2023-03-29T14:09:08.752Z,28.93
2023-03-29T14:11:36.636Z,29.47
2023-03-29T14:14:07.321Z,27.89
2023-03-29T14:16:37.291Z,27.15
2023-03-29T14:19:13.505Z,29.21
2023-03-29T14:21:42.726Z,27.78
2023-03-29T14:24:12.943Z,27.39
2023-03-29T14:26:45.978Z,28.04
2023-03-29T14:29:13.868Z,28.83
2023-03-29T14:31:42.601Z,29.39
2023-03-29T14:34:15.936Z,27.77
2023-03-29T14:36:49.123Z,29.66
2023-03-29T14:39:23.600Z,28.00
2023-03-29T14:41:53.463Z,27.21
2023-03-29T14:44:25.001Z,27.87
2023-03-29T14:46:53.816Z,28.42
2023-03-29T14:49:23.178Z,27.04
2023-03-29T14:51:52.738Z,26.01
2023-03-29T14:54:28.766Z,27.06
2023-03-29T14:56:56.607Z,25.68
2023-03-29T14:59:28.263Z,27.30
2023-03-29T15:01:56.427Z,25.51
2023-03-29T15:04:33.002Z,27.56
2023-03-29T15:07:00.799Z,26.74
2023-03-29T15:09:35.334Z,27.10
2023-03-29T15:12:03.464Z,27.19
2023-03-29T15:14:33.978Z,29.00
2023-03-29T15:17:05.172Z,26.58
2023-03-29T15:19:33.289Z,27.26
2023-03-29T15:22:05.417Z,26.98
2023-03-29T15:24:33.949Z,25.09
2023-03-29T15:27:13.773Z,25.98
2023-03-29T15:29:43.311Z,26.01
2023-03-29T15:32:22.678Z,26.29
2023-03-29T15:35:00.181Z,27.37
2023-03-29T15:37:28.459Z,26.97
2023-03-29T15:39:56.789Z,27.38
2023-03-29T15:42:25.899Z,26.15
2023-03-29T15:44:56.232Z,25.80
2023-03-29T15:47:24.165Z,25.76
2023-03-29T15:49:52.180Z,24.66
2023-03-29T15:52:19.666Z,26.15
2023-03-29T15:54:47.233Z,27.22
2023-03-29T15:57:17.914Z,25.89
2023-03-29T15:59:45.790Z,24.37
2023-03-29T16:02:17.649Z,26.00
2023-03-29T16:04:45.347Z,25.13
2023-03-29T16:07:15.610Z,25.16
2023-03-29T16:09:44.172Z,26.34
2023-03-29T16:12:12.507Z,26.10
2023-03-29T16:14:41.283Z,25.39
2023-03-29T16:17:10.906Z,25.92
2023-03-29T16:19:38.504Z,25.14
2023-03-29T16:22:07.537Z,26.22
2023-03-29T16:24:36.436Z,26.47
2023-03-29T16:27:04.403Z,26.29
2023-03-29T16:29:32.274Z,25.79
2023-03-29T16:32:00.698Z,25.30
2023-03-29T16:34:28.607Z,25.81
2023-03-29T16:36:56.085Z,24.27
2023-03-29T16:39:23.702Z,24.54
2023-03-29T16:41:51.413Z,24.41
2023-03-29T16:44:23.828Z,24.57
2023-03-29T16:46:57.483Z,24.13
2023-03-29T16:49:25.240Z,23.09
2023-03-29T16:51:52.944Z,24.81
2023-03-29T16:54:20.535Z,24.52
2023-03-29T16:56:48.224Z,24.79
2023-03-29T16:59:16.648Z,25.62
2023-03-29T17:01:44.472Z,23.95
2023-03-29T17:04:12.231Z,24.86
2023-03-29T17:06:43.600Z,25.28
2023-03-29T17:09:12.525Z,24.11
2023-03-29T17:11:41.445Z,24.81
2023-03-29T17:14:10.387Z,24.44
2023-03-29T17:16:38.188Z,23.75
2023-03-29T17:19:06.108Z,24.47
2023-03-29T17:21:33.915Z,23.24
2023-03-29T17:24:01.917Z,22.70
2023-03-29T17:26:30.447Z,24.31
2023-03-29T17:28:57.986Z,25.20
2023-03-29T17:31:26.079Z,24.90
2023-03-29T17:33:54.740Z,25.15
2023-03-29T17:36:24.329Z,23.60
2023-03-29T17:38:52.140Z,24.04
2023-03-29T17:41:19.828Z,24.89
2023-03-29T17:43:48.073Z,25.13
2023-03-29T17:46:16.904Z,24.49
2023-03-29T17:48:46.171Z,24.41
2023-03-29T17:51:14.182Z,24.54
2023-03-29T17:53:43.420Z,25.45
2023-03-29T17:56:13.771Z,24.85
2023-03-29T17:58:41.363Z,25.63
2023-03-29T18:01:11.041Z,25.95
2023-03-29T18:03:38.969Z,25.09
2023-03-29T18:06:07.743Z,25.13
2023-03-29T18:08:35.861Z,25.93
2023-03-29T18:11:22.269Z,26.61
2023-03-29T18:13:53.906Z,26.54
2023-03-29T18:16:22.134Z,25.93
2023-03-29T18:18:52.839Z,24.73
2023-03-29T18:21:21.061Z,25.75
2023-03-29T18:23:49.864Z,26.18
2023-03-29T18:26:19.907Z,25.24
2023-03-29T18:28:48.214Z,26.49
2023-03-29T18:31:16.902Z,26.12
2023-03-29T18:33:48.449Z,26.36
2023-03-29T18:36:17.419Z,26.78
2023-03-29T18:38:45.842Z,26.86
2023-03-29T18:41:16.756Z,25.72
2023-03-29T18:43:45.069Z,25.59
2023-03-29T18:46:13.140Z,25.67
2023-03-29T18:48:43.945Z,25.73
2023-03-29T18:51:12.669Z,26.39
2023-03-29T18:53:42.983Z,26.13
2023-03-29T18:56:11.209Z,26.36
2023-03-29T18:58:39.419Z,26.38
2023-03-29T19:01:09.657Z,26.20
2023-03-29T19:03:37.980Z,26.14
2023-03-29T19:06:08.781Z,25.60
2023-03-29T19:08:41.211Z,26.34
2023-03-29T19:11:14.144Z,27.01
2023-03-29T19:13:42.541Z,26.82
2023-03-29T19:16:10.343Z,26.52
2023-03-29T19:18:38.169Z,26.16
2023-03-29T19:21:06.454Z,26.63
2023-03-29T19:23:34.469Z,26.74
2023-03-29T19:26:04.013Z,26.72
2023-03-29T19:28:33.889Z,26.41
2023-03-29T19:31:03.284Z,25.99
2023-03-29T19:33:34.491Z,26.01
2023-03-29T19:36:03.250Z,25.77
2023-03-29T19:38:31.853Z,25.07
2023-03-29T19:41:05.005Z,25.30
2023-03-29T19:43:34.811Z,25.78
2023-03-29T19:46:09.469Z,26.17
2023-03-29T19:48:38.205Z,25.91
2023-03-29T19:51:06.119Z,25.80
2023-03-29T19:53:38.199Z,26.03
2023-03-29T19:56:07.838Z,25.06
2023-03-29T19:58:37.507Z,25.05
2023-03-29T20:01:06.102Z,25.00
2023-03-29T20:03:34.374Z,24.53
2023-03-29T20:06:02.720Z,24.94
2023-03-29T20:08:30.551Z,24.37
2023-03-29T20:10:59.752Z,24.49
2023-03-29T20:13:37.619Z,24.85
2023-03-29T20:16:11.518Z,25.24
2023-03-29T20:18:39.676Z,24.88
2023-03-29T20:21:09.326Z,25.18
2023-03-29T20:23:37.435Z,24.88
2023-03-29T20:26:05.107Z,25.10
2023-03-29T20:28:33.896Z,25.38
2023-03-29T20:31:06.828Z,25.51
2023-03-29T20:33:34.497Z,25.30
2023-03-29T20:36:02.211Z,24.97
2023-03-29T20:38:29.857Z,24.20
2023-03-29T20:40:57.577Z,25.07
2023-03-29T20:43:25.504Z,25.10
2023-03-29T20:45:54.303Z,25.07
2023-03-29T20:48:24.330Z,24.72
2023-03-29T20:50:52.091Z,24.60
2023-03-29T20:53:20.719Z,23.65
2023-03-29T20:55:48.501Z,24.66
2023-03-29T20:58:16.141Z,24.24
2023-03-29T21:00:44.520Z,23.73
2023-03-29T21:03:12.498Z,24.41
2023-03-29T21:05:40.179Z,24.76
2023-03-29T21:08:08.447Z,24.67
2023-03-29T21:10:38.753Z,24.63
2023-03-29T21:13:07.644Z,24.74
2023-03-29T21:15:35.347Z,24.48
2023-03-29T21:18:04.225Z,24.65
2023-03-29T21:20:32.321Z,24.58
2023-03-29T21:23:01.043Z,24.47
2023-03-29T21:25:29.041Z,22.52
2023-03-29T21:27:56.771Z,24.10
2023-03-29T21:30:24.344Z,24.30
2023-03-29T21:32:52.200Z,24.32
2023-03-29T21:35:19.831Z,24.47
2023-03-29T21:37:47.405Z,24.46
2023-03-29T21:40:15.279Z,24.41
2023-03-29T21:42:42.916Z,24.28
2023-03-29T21:45:10.956Z,24.21
2023-03-29T21:47:38.610Z,24.09
2023-03-29T21:50:06.805Z,24.19
2023-03-29T21:52:34.397Z,23.75
2023-03-29T21:55:01.924Z,23.50
2023-03-29T21:57:29.715Z,22.67
2023-03-29T21:59:57.538Z,23.00
2023-03-29T22:02:25.184Z,23.94
2023-03-29T22:04:52.805Z,23.81
2023-03-29T22:07:22.794Z,22.88
2023-03-29T22:09:50.468Z,23.25
2023-03-29T22:12:19.330Z,22.88
2023-03-29T22:14:47.392Z,22.67
2023-03-29T22:17:16.059Z,23.09
2023-03-29T22:19:44.177Z,23.03
2023-03-29T22:22:14.310Z,23.61
2023-03-29T22:24:42.373Z,23.19
2023-03-29T22:27:11.725Z,23.55
2023-03-29T22:29:39.224Z,23.24
2023-03-29T22:32:06.965Z,21.63
2023-03-29T22:34:34.597Z,22.83
2023-03-29T22:37:02.176Z,23.09
2023-03-29T22:39:29.917Z,22.87
2023-03-29T22:41:57.572Z,21.81
2023-03-29T22:44:26.080Z,22.60
2023-03-29T22:46:53.646Z,22.70
2023-03-29T22:49:21.522Z,22.82
2023-03-29T22:51:49.047Z,22.84
2023-03-29T22:54:17.006Z,22.95
2023-03-29T22:56:44.566Z,21.97
2023-03-29T22:59:12.211Z,22.51
2023-03-29T23:01:39.899Z,22.81
2023-03-29T23:04:07.604Z,22.86
2023-03-29T23:06:35.310Z,22.65
2023-03-29T23:09:03.779Z,22.70
2023-03-29T23:11:31.778Z,22.21
2023-03-29T23:13:59.686Z,22.35
2023-03-29T23:16:27.248Z,21.61
2023-03-29T23:18:54.813Z,22.10
2023-03-29T23:21:23.100Z,22.39
2023-03-29T23:23:50.717Z,22.35
2023-03-29T23:26:18.291Z,22.26
2023-03-29T23:28:45.982Z,22.14
2023-03-29T23:31:18.464Z,22.34
2023-03-29T23:33:46.765Z,21.39
2023-03-29T23:36:16.620Z,21.55
2023-03-29T23:38:45.895Z,22.00
2023-03-29T23:41:14.479Z,19.94
2023-03-29T23:43:43.589Z,20.35
2023-03-29T23:46:15.247Z,22.04
2023-03-29T23:48:47.340Z,22.25
2023-03-29T23:51:18.147Z,21.97
2023-03-29T23:53:46.613Z,21.92
2023-03-29T23:56:14.445Z,21.99
2023-03-29T23:58:42.318Z,22.08
